Time;durP1;ratioP1;P1;durP2;ratioP2;P2;SDS_P1;SDS_P2;PMS_P1;PMS_P2;Temp;Humidity;BMP_temperature;BMP_pressure;BME280_temperature;BME280_humidity;BME280_pressure;Samples;Min_cycle;Max_cycle;Signal;HPM_P1;HPM_P2
2021/01/08 00:00:50;;;;;;;1.92;1.45;;;16.30;42.80;;;;;;6126898;23;20541;-78
2021/01/08 00:03:16;;;;;;;1.80;1.38;;;16.30;42.80;;;;;;6127041;23;20170;-79
2021/01/08 00:05:42;;;;;;;1.80;1.40;;;16.40;42.80;;;;;;6127051;23;20137;-78
2021/01/08 00:08:07;;;;;;;1.20;1.10;;;16.40;42.70;;;;;;6127021;23;20183;-79
2021/01/08 00:10:33;;;;;;;1.40;1.30;;;16.40;42.70;;;;;;6101186;23;20202;-79
2021/01/08 00:12:59;;;;;;;1.52;1.20;;;16.40;42.70;;;;;;6126819;23;20587;-78
2021/01/08 00:15:25;;;;;;;1.40;1.17;;;16.30;42.80;;;;;;6126910;23;20575;-79
2021/01/08 00:17:52;;;;;;;1.58;1.40;;;16.30;42.80;;;;;;6126879;23;20152;-79
2021/01/08 00:20:18;;;;;;;2.58;1.30;;;16.30;42.90;;;;;;6126896;23;20141;-79
2021/01/08 00:22:46;;;;;;;1.95;1.35;;;16.30;42.90;;;;;;6101494;23;20160;-79
2021/01/08 00:25:12;;;;;;;1.75;1.60;;;16.30;42.80;;;;;;6127700;23;20136;-78
2021/01/08 00:27:38;;;;;;;1.67;1.23;;;16.30;43.00;;;;;;6103083;23;20148;-78
2021/01/08 00:30:06;;;;;;;1.70;1.38;;;16.30;42.90;;;;;;6102947;23;20214;-79
2021/01/08 00:32:31;;;;;;;2.20;1.65;;;16.30;43.00;;;;;;6128774;23;20500;-80
2021/01/08 00:34:58;;;;;;;1.77;1.20;;;16.30;43.00;;;;;;6097987;23;20198;-79
2021/01/08 00:37:24;;;;;;;1.50;1.10;;;16.30;43.70;;;;;;6099499;23;20593;-79
2021/01/08 00:39:51;;;;;;;1.63;1.48;;;16.30;43.00;;;;;;6099357;23;20144;-78
2021/01/08 00:42:18;;;;;;;1.52;1.40;;;16.30;43.00;;;;;;6100252;23;20148;-78
2021/01/08 00:44:44;;;;;;;1.52;1.38;;;16.30;43.00;;;;;;6098032;23;20137;-79
2021/01/08 00:47:10;;;;;;;1.70;1.45;;;16.30;43.00;;;;;;6098455;23;20149;-78
2021/01/08 00:49:35;;;;;;;2.47;1.38;;;16.30;43.00;;;;;;6099710;23;20588;-79
2021/01/08 00:52:02;;;;;;;1.40;1.30;;;16.30;43.10;;;;;;6099338;23;20164;-79
2021/01/08 00:54:28;;;;;;;1.63;1.17;;;16.30;43.20;;;;;;6100132;23;20223;-79
2021/01/08 00:56:53;;;;;;;1.30;1.20;;;16.30;43.10;;;;;;6099342;23;20184;-78
2021/01/08 00:59:19;;;;;;;1.98;1.50;;;16.30;43.10;;;;;;6099507;23;20688;-79
2021/01/08 01:01:45;;;;;;;1.80;1.35;;;16.30;43.00;;;;;;6099640;23;20228;-78
2021/01/08 01:04:11;;;;;;;1.83;1.33;;;16.30;43.00;;;;;;6099510;23;20151;-79
2021/01/08 01:06:36;;;;;;;1.63;1.40;;;16.30;43.00;;;;;;6099683;23;20172;-79
2021/01/08 01:09:03;;;;;;;1.83;1.38;;;16.30;43.00;;;;;;6097522;23;20157;-79
2021/01/08 01:11:29;;;;;;;1.40;1.30;;;16.30;43.10;;;;;;6097802;23;20133;-79
2021/01/08 01:13:56;;;;;;;1.38;1.20;;;16.30;43.00;;;;;;6099741;23;20141;-79
2021/01/08 01:16:22;;;;;;;1.77;1.38;;;16.30;43.20;;;;;;6098808;23;20137;-78
2021/01/08 01:18:49;;;;;;;1.60;1.50;;;16.30;43.10;;;;;;6099025;23;20212;-78
2021/01/08 01:21:15;;;;;;;1.67;1.48;;;16.30;43.20;;;;;;6098099;23;20466;-79
2021/01/08 01:23:41;;;;;;;1.98;1.48;;;16.30;43.20;;;;;;6099162;23;20133;-79
2021/01/08 01:26:07;;;;;;;1.75;1.50;;;16.20;43.10;;;;;;6097980;23;20143;-78
2021/01/08 01:28:33;;;;;;;1.60;1.42;;;16.30;43.80;;;;;;6073660;23;20133;-79
2021/01/08 01:30:59;;;;;;;1.80;1.55;;;16.30;43.20;;;;;;6098969;23;20168;-78
2021/01/08 01:33:24;;;;;;;1.55;1.27;;;16.30;43.20;;;;;;6099186;23;20633;-78
2021/01/08 01:35:51;;;;;;;2.13;1.67;;;16.30;43.20;;;;;;6123048;23;20620;-78
2021/01/08 01:38:16;;;;;;;2.03;1.38;;;16.20;43.20;;;;;;6128453;23;20219;-79
2021/01/08 01:40:42;;;;;;;1.40;1.30;;;16.20;43.40;;;;;;6128300;23;20159;-80
2021/01/08 01:43:08;;;;;;;1.90;1.40;;;16.20;43.30;;;;;;6102191;23;20174;-78
2021/01/08 01:45:34;;;;;;;1.55;1.30;;;16.20;43.30;;;;;;6128116;23;20140;-78
2021/01/08 01:48:00;;;;;;;2.10;1.50;;;16.20;43.40;;;;;;6127899;23;20136;-79
2021/01/08 01:50:27;;;;;;;2.45;1.77;;;16.20;43.40;;;;;;6101919;23;20190;-78
2021/01/08 01:52:54;;;;;;;1.30;1.20;;;16.20;43.40;;;;;;6102393;23;20537;-79
2021/01/08 01:55:21;;;;;;;1.55;1.30;;;16.20;43.30;;;;;;6128016;23;20266;-78
2021/01/08 01:57:48;;;;;;;2.10;1.67;;;16.20;43.20;;;;;;6128785;23;20139;-80
2021/01/08 02:00:14;;;;;;;1.35;1.10;;;16.20;43.30;;;;;;6128268;23;20252;-78
2021/01/08 02:02:43;;;;;;;1.48;1.17;;;16.20;43.20;;;;;;6102560;23;20163;-78
2021/01/08 02:05:09;;;;;;;1.52;1.23;;;16.30;43.30;;;;;;6128093;23;20140;-79
2021/01/08 02:07:36;;;;;;;1.50;1.30;;;16.20;43.30;;;;;;6127816;23;20223;-79
2021/01/08 02:10:03;;;;;;;1.45;1.35;;;16.20;43.30;;;;;;6054156;23;20229;-78
2021/01/08 02:12:28;;;;;;;1.65;1.45;;;16.20;43.20;;;;;;6078302;23;20228;-78
2021/01/08 02:14:54;;;;;;;1.40;1.30;;;16.20;43.30;;;;;;6077870;23;20160;-78
2021/01/08 02:17:20;;;;;;;1.55;1.45;;;16.30;43.40;;;;;;6101907;23;20512;-79
2021/01/08 02:19:56;;;;;;;2.28;1.50;;;16.20;43.30;;;;;;6078256;23;20136;-78
2021/01/08 02:22:32;;;;;;;2.03;1.50;;;16.20;43.40;;;;;;6078674;23;20464;-79
2021/01/08 02:25:20;;;;;;;1.60;1.40;;;16.20;43.40;;;;;;6102486;23;20136;-79
2021/01/08 02:28:00;;;;;;;1.67;1.38;;;16.20;43.30;;;;;;6128494;23;20180;-78
2021/01/08 02:30:26;;;;;;;1.58;1.30;;;16.30;43.30;;;;;;6104204;23;20168;-79
2021/01/08 02:32:52;;;;;;;1.98;1.40;;;16.30;43.40;;;;;;6102519;23;20227;-78
2021/01/08 02:35:17;;;;;;;1.52;1.25;;;16.20;43.40;;;;;;6097276;23;20219;-80
2021/01/08 02:37:50;;;;;;;1.75;1.45;;;16.20;43.50;;;;;;6097188;23;20477;-78
2021/01/08 02:40:17;;;;;;;1.58;1.33;;;16.20;43.50;;;;;;6097148;23;20137;-79
2021/01/08 02:42:44;;;;;;;1.88;1.42;;;16.20;43.50;;;;;;6097415;23;20591;-78
2021/01/08 02:45:10;;;;;;;1.67;1.30;;;16.20;43.50;;;;;;6073182;23;20141;-79
2021/01/08 02:47:37;;;;;;;2.08;1.40;;;16.20;43.60;;;;;;6098136;23;20577;-78
2021/01/08 02:50:03;;;;;;;1.52;1.33;;;16.20;43.50;;;;;;6098320;23;20168;-78
2021/01/08 02:52:29;;;;;;;1.90;1.60;;;16.20;43.50;;;;;;6098694;23;20517;-79
2021/01/08 02:54:56;;;;;;;1.63;1.33;;;16.20;43.50;;;;;;6098201;23;20133;-78
2021/01/08 02:57:21;;;;;;;1.92;1.60;;;16.20;43.50;;;;;;6073126;23;20133;-78
2021/01/08 02:59:47;;;;;;;1.50;1.30;;;16.20;43.60;;;;;;6073225;23;20231;-78
2021/01/08 03:02:13;;;;;;;1.40;1.30;;;16.20;43.60;;;;;;6097360;23;20553;-78
2021/01/08 03:04:39;;;;;;;1.30;1.20;;;16.20;43.50;;;;;;6072932;23;20140;-79
2021/01/08 03:07:04;;;;;;;1.48;1.30;;;16.20;43.60;;;;;;6073237;23;20227;-78
2021/01/08 03:09:30;;;;;;;1.92;1.45;;;16.20;43.60;;;;;;6072984;23;20255;-78
2021/01/08 03:11:57;;;;;;;1.35;1.17;;;16.20;43.60;;;;;;6096872;23;20133;-78
2021/01/08 03:14:22;;;;;;;1.75;1.52;;;16.10;43.60;;;;;;6098327;23;20461;-79
2021/01/08 03:16:48;;;;;;;1.10;1.00;;;16.20;43.60;;;;;;6073310;23;20561;-78
2021/01/08 03:19:15;;;;;;;1.40;1.30;;;16.10;43.70;;;;;;6098313;23;20137;-80
2021/01/08 03:21:40;;;;;;;2.20;1.58;;;16.20;43.70;;;;;;6098218;23;20176;-78
2021/01/08 03:24:06;;;;;;;1.85;1.58;;;16.20;43.60;;;;;;6098024;23;20137;-78
2021/01/08 03:26:32;;;;;;;1.30;1.15;;;16.20;43.60;;;;;;6096708;23;20143;-78
2021/01/08 03:28:58;;;;;;;1.40;1.25;;;16.20;43.70;;;;;;6097969;23;20168;-79
2021/01/08 03:31:24;;;;;;;1.77;1.40;;;16.20;43.60;;;;;;6098260;23;20591;-78
2021/01/08 03:33:49;;;;;;;1.70;1.40;;;16.20;43.60;;;;;;6096811;23;20208;-78
2021/01/08 03:36:15;;;;;;;1.33;1.10;;;16.20;43.60;;;;;;6124323;23;20199;-79
2021/01/08 03:38:41;;;;;;;1.73;1.35;;;16.10;43.70;;;;;;6127176;23;20503;-78
2021/01/08 03:41:06;;;;;;;1.30;1.20;;;16.10;43.60;;;;;;6127255;23;20148;-79
2021/01/08 03:43:32;;;;;;;1.52;1.25;;;16.20;43.60;;;;;;6127660;23;20140;-78
2021/01/08 03:45:58;;;;;;;1.38;1.20;;;16.20;43.60;;;;;;6077611;23;20560;-79
2021/01/08 03:48:24;;;;;;;1.83;1.50;;;16.20;43.50;;;;;;6127643;23;20147;-78
2021/01/08 03:50:50;;;;;;;1.90;1.60;;;16.20;43.60;;;;;;6127199;23;20168;-79
2021/01/08 03:53:16;;;;;;;1.42;1.23;;;16.20;43.70;;;;;;6127401;23;20211;-78
2021/01/08 03:55:41;;;;;;;1.77;1.30;;;16.20;43.50;;;;;;6127058;23;20132;-79
2021/01/08 03:58:08;;;;;;;1.70;1.40;;;16.20;44.30;;;;;;6127004;23;20191;-79
2021/01/08 04:00:34;;;;;;;1.73;1.25;;;16.20;43.70;;;;;;6126971;23;20167;-79
2021/01/08 04:03:01;;;;;;;1.88;1.40;;;16.20;43.60;;;;;;6127430;23;20140;-79
2021/01/08 04:05:27;;;;;;;1.77;1.27;;;16.20;43.60;;;;;;6127627;23;20167;-78
2021/01/08 04:07:54;;;;;;;1.67;1.30;;;16.20;43.70;;;;;;6127454;23;20143;-79
2021/01/08 04:10:20;;;;;;;1.92;1.50;;;16.10;43.80;;;;;;6127280;23;20178;-79
2021/01/08 04:12:47;;;;;;;1.80;1.40;;;16.10;43.80;;;;;;6127653;23;20133;-78
2021/01/08 04:15:13;;;;;;;1.63;1.40;;;16.10;43.70;;;;;;6101386;23;20195;-78
2021/01/08 04:17:40;;;;;;;2.05;1.60;;;16.10;43.90;;;;;;6127047;23;20136;-78
2021/01/08 04:20:09;;;;;;;1.83;1.60;;;16.10;44.20;;;;;;6127667;23;20628;-79
2021/01/08 04:22:35;;;;;;;1.60;1.48;;;16.10;43.90;;;;;;6101271;23;20148;-79
2021/01/08 04:25:04;;;;;;;1.52;1.38;;;16.10;43.80;;;;;;6127181;23;20171;-78
2021/01/08 04:27:30;;;;;;;1.73;1.40;;;16.10;43.90;;;;;;6101417;23;20155;-79
2021/01/08 04:29:56;;;;;;;1.80;1.50;;;16.10;43.70;;;;;;6127036;23;20196;-78
2021/01/08 04:32:22;;;;;;;2.05;1.38;;;16.10;43.70;;;;;;6127061;23;20155;-79
2021/01/08 04:34:48;;;;;;;1.95;1.55;;;16.10;43.80;;;;;;6127391;23;20515;-77
2021/01/08 04:37:14;;;;;;;1.40;1.30;;;16.10;43.70;;;;;;6101413;23;20132;-78
2021/01/08 04:39:41;;;;;;;1.80;1.38;;;16.20;43.80;;;;;;6101330;23;20140;-78
2021/01/08 04:42:06;;;;;;;1.35;1.20;;;16.20;43.80;;;;;;6101480;23;20136;-79
2021/01/08 04:44:32;;;;;;;1.80;1.33;;;16.20;43.90;;;;;;6126820;23;20140;-78
2021/01/08 04:46:58;;;;;;;1.70;1.50;;;16.10;43.80;;;;;;6127210;23;20468;-78
2021/01/08 04:49:24;;;;;;;1.42;1.33;;;16.10;43.90;;;;;;6126712;23;20195;-79
2021/01/08 04:51:52;;;;;;;1.48;1.38;;;16.20;43.80;;;;;;6101565;23;20148;-79
2021/01/08 04:54:18;;;;;;;2.08;1.52;;;16.20;43.80;;;;;;6077341;23;20148;-78
2021/01/08 04:56:46;;;;;;;1.30;1.17;;;16.20;43.80;;;;;;6101361;23;20171;-78
2021/01/08 04:59:12;;;;;;;1.30;1.20;;;16.20;43.70;;;;;;6127511;23;20588;-79
2021/01/08 05:01:39;;;;;;;1.42;1.33;;;16.20;43.70;;;;;;6101694;23;20172;-78
2021/01/08 05:04:06;;;;;;;1.40;1.30;;;16.20;43.80;;;;;;6127472;23;20634;-78
2021/01/08 05:06:32;;;;;;;1.40;1.30;;;16.20;43.70;;;;;;6127434;23;20464;-78
2021/01/08 05:08:58;;;;;;;1.83;1.40;;;16.20;43.70;;;;;;6127379;23;20226;-78
2021/01/08 05:11:29;;;;;;;1.42;1.33;;;16.20;43.50;;;;;;6128920;23;20132;-78
2021/01/08 05:13:56;;;;;;;1.60;1.40;;;16.30;43.40;;;;;;6129053;23;20136;-77
2021/01/08 05:16:27;;;;;;;1.50;1.25;;;16.30;43.40;;;;;;6129001;23;20136;-79
2021/01/08 05:18:54;;;;;;;1.55;1.27;;;16.30;43.30;;;;;;6129000;23;20133;-78
2021/01/08 05:21:20;;;;;;;1.65;1.15;;;16.30;43.40;;;;;;6078620;23;20551;-79
2021/01/08 05:23:48;;;;;;;1.33;1.17;;;16.30;43.20;;;;;;6129089;23;20139;-79
2021/01/08 05:26:14;;;;;;;1.95;1.50;;;16.40;43.20;;;;;;6129299;23;20163;-79
2021/01/08 05:28:50;;;;;;;1.52;1.40;;;16.40;43.20;;;;;;6128902;23;20140;-78
2021/01/08 05:31:16;;;;;;;1.38;1.27;;;16.30;43.20;;;;;;6080780;23;20136;-78
2021/01/08 05:33:42;;;;;;;1.60;1.50;;;16.40;43.20;;;;;;6129248;23;20141;-79
2021/01/08 05:36:12;;;;;;;2.00;1.65;;;16.30;43.20;;;;;;6102833;23;20267;-78
2021/01/08 05:38:45;;;;;;;1.52;1.25;;;16.30;43.40;;;;;;6128842;23;20136;-78
2021/01/08 05:41:12;;;;;;;1.45;1.25;;;16.30;43.30;;;;;;6103777;23;20565;-79
2021/01/08 05:43:45;;;;;;;1.30;1.10;;;16.30;43.20;;;;;;6128725;23;20136;-78
2021/01/08 05:46:15;;;;;;;1.77;1.30;;;16.30;43.20;;;;;;6102888;23;20584;-77
2021/01/08 05:48:44;;;;;;;1.75;1.40;;;16.30;43.20;;;;;;6128958;23;20140;-79
2021/01/08 05:51:17;;;;;;;1.90;1.45;;;16.30;43.30;;;;;;6102462;23;20254;-78
2021/01/08 05:53:46;;;;;;;2.03;1.73;;;16.30;43.30;;;;;;6128918;23;20468;-79
2021/01/08 05:56:35;;;;;;;1.38;1.27;;;16.20;43.30;;;;;;6129298;23;20176;-78
2021/01/08 05:59:05;;;;;;;1.45;1.15;;;16.30;43.20;;;;;;6125811;23;20144;-78
2021/01/08 06:01:32;;;;;;;1.50;1.30;;;16.40;43.10;;;;;;6128655;23;20577;-78
2021/01/08 06:04:01;;;;;;;1.92;1.58;;;16.30;43.10;;;;;;6102009;23;20136;-78
2021/01/08 06:06:37;;;;;;;1.40;1.10;;;16.30;43.20;;;;;;6102846;23;20129;-78
2021/01/08 06:09:05;;;;;;;1.55;1.35;;;16.40;43.10;;;;;;6128332;23;20132;-79
2021/01/08 06:11:31;;;;;;;1.40;1.25;;;16.40;43.10;;;;;;6102943;23;20199;-77
2021/01/08 06:14:03;;;;;;;1.50;1.40;;;16.30;43.10;;;;;;6103291;23;20192;-78
2021/01/08 06:16:55;;;;;;;1.48;1.38;;;16.30;43.20;;;;;;6128679;23;20132;-78
2021/01/08 06:19:21;;;;;;;1.55;1.35;;;16.30;43.20;;;;;;6097414;23;20160;-78
2021/01/08 06:21:47;;;;;;;1.60;1.30;;;16.30;43.20;;;;;;6102809;23;20140;-81
2021/01/08 06:24:26;;;;;;;1.77;1.30;;;16.30;43.30;;;;;;6128734;23;20590;-78
2021/01/08 06:26:52;;;;;;;1.80;1.30;;;16.30;43.30;;;;;;6102774;23;20142;-78
2021/01/08 06:29:19;;;;;;;1.40;1.30;;;16.20;43.20;;;;;;6103002;23;20222;-79
2021/01/08 06:31:52;;;;;;;1.80;1.40;;;16.30;43.20;;;;;;6103228;23;20568;-78
2021/01/08 06:34:25;;;;;;;1.98;1.42;;;16.30;43.20;;;;;;6129414;23;20179;-78
2021/01/08 06:37:06;;;;;;;1.83;1.50;;;16.30;43.10;;;;;;6102850;23;20136;-78
2021/01/08 06:39:36;;;;;;;1.30;1.20;;;16.40;43.10;;;;;;6103188;23;20132;-78
2021/01/08 06:42:03;;;;;;;1.38;1.20;;;16.30;43.00;;;;;;6128613;23;20652;-79
2021/01/08 06:44:30;;;;;;;1.58;1.27;;;16.40;43.00;;;;;;6102578;23;20148;-78
2021/01/08 06:47:04;;;;;;;1.63;1.35;;;16.40;43.20;;;;;;6128543;23;20144;-78
2021/01/08 06:49:31;;;;;;;1.40;1.25;;;16.30;43.20;;;;;;6129297;23;20171;-78
2021/01/08 06:52:03;;;;;;;1.58;1.40;;;16.30;43.10;;;;;;6103526;23;20136;-78
2021/01/08 06:54:38;;;;;;;1.65;1.38;;;16.30;43.10;;;;;;6129106;23;20136;-78
2021/01/08 06:57:03;;;;;;;1.58;1.20;;;16.40;43.10;;;;;;6103653;23;20132;-78
2021/01/08 06:59:32;;;;;;;1.60;1.23;;;16.30;43.10;;;;;;6102829;23;20152;-79
2021/01/08 07:02:11;;;;;;;1.50;1.33;;;16.40;43.00;;;;;;6104266;23;20140;-79
2021/01/08 07:04:39;;;;;;;1.80;1.52;;;16.30;43.70;;;;;;6104176;23;20140;-79
2021/01/08 07:07:06;;;;;;;1.50;1.30;;;16.40;43.10;;;;;;6103972;23;20176;-79
2021/01/08 07:09:51;;;;;;;1.85;1.50;;;16.40;43.00;;;;;;6104167;23;20175;-79
2021/01/08 07:12:20;;;;;;;1.70;1.45;;;16.40;43.10;;;;;;6101205;23;20227;-78
2021/01/08 07:14:47;;;;;;;2.10;1.58;;;16.40;42.90;;;;;;6079130;23;20148;-79
2021/01/08 07:17:13;;;;;;;1.60;1.33;;;16.40;42.90;;;;;;6127811;23;20158;-79
2021/01/08 07:19:40;;;;;;;1.65;1.40;;;16.30;43.10;;;;;;6127329;23;20137;-80
2021/01/08 07:22:07;;;;;;;1.60;1.20;;;16.30;43.10;;;;;;6101303;23;20607;-79
2021/01/08 07:24:37;;;;;;;1.38;1.27;;;16.30;43.00;;;;;;6101897;23;20136;-79
2021/01/08 07:27:15;;;;;;;1.67;1.33;;;16.30;43.00;;;;;;6102133;23;20140;-79
2021/01/08 07:29:57;;;;;;;1.67;1.25;;;16.40;42.80;;;;;;6127134;23;20258;-79
2021/01/08 07:32:40;;;;;;;2.03;1.70;;;16.40;42.80;;;;;;6104805;23;20143;-79
2021/01/08 07:35:28;;;;;;;1.40;1.30;;;16.40;42.90;;;;;;6127467;23;20188;-79
2021/01/08 07:38:09;;;;;;;1.63;1.50;;;16.40;42.90;;;;;;6102250;23;20152;-79
2021/01/08 07:40:50;;;;;;;1.67;1.58;;;16.50;42.70;;;;;;6128057;23;20136;-79
2021/01/08 07:43:17;;;;;;;1.50;1.35;;;16.50;42.70;;;;;;6127542;23;20157;-78
2021/01/08 07:45:58;;;;;;;1.85;1.42;;;16.40;42.80;;;;;;6127295;23;20586;-79
2021/01/08 07:48:49;;;;;;;2.15;1.50;;;16.40;42.90;;;;;;6127631;23;20509;-78
2021/01/08 07:51:21;;;;;;;1.80;1.60;;;16.40;42.80;;;;;;6125025;23;20250;-80
2021/01/08 07:53:50;;;;;;;1.67;1.52;;;16.50;42.70;;;;;;6128224;23;20139;-79
2021/01/08 07:56:18;;;;;;;1.77;1.30;;;16.40;42.70;;;;;;6102357;23;20162;-78
2021/01/08 07:59:05;;;;;;;1.90;1.60;;;16.50;42.70;;;;;;6128533;23;20244;-78
2021/01/08 08:01:31;;;;;;;1.65;1.55;;;16.50;42.50;;;;;;6128294;23;20167;-79
2021/01/08 08:04:01;;;;;;;1.77;1.50;;;16.50;42.60;;;;;;6127458;23;20155;-79
2021/01/08 08:06:29;;;;;;;1.25;1.15;;;16.50;42.50;;;;;;6128008;23;20151;-79
2021/01/08 08:08:58;;;;;;;1.60;1.40;;;16.50;42.70;;;;;;6127847;23;20136;-79
2021/01/08 08:11:27;;;;;;;1.50;1.40;;;16.40;42.70;;;;;;6128173;23;20202;-79
2021/01/08 08:13:56;;;;;;;1.80;1.50;;;16.40;42.80;;;;;;6102756;23;20132;-78
2021/01/08 08:16:35;;;;;;;1.80;1.70;;;16.50;42.70;;;;;;6127742;23;20136;-78
2021/01/08 08:19:01;;;;;;;1.92;1.60;;;16.50;42.70;;;;;;6127863;23;20160;-79
2021/01/08 08:21:27;;;;;;;1.77;1.48;;;16.40;42.70;;;;;;6127947;23;20241;-79
2021/01/08 08:23:54;;;;;;;2.35;1.58;;;16.40;42.80;;;;;;6127843;23;20133;-79
2021/01/08 08:26:21;;;;;;;2.20;1.50;;;16.40;42.80;;;;;;6127941;23;20425;-79
2021/01/08 08:29:06;;;;;;;1.55;1.40;;;16.40;42.70;;;;;;6127969;23;20549;-79
2021/01/08 08:31:39;;;;;;;1.88;1.60;;;16.50;42.60;;;;;;6102108;23;20133;-79
2021/01/08 08:34:07;;;;;;;1.88;1.45;;;16.50;42.70;;;;;;6127290;23;20139;-78
2021/01/08 08:36:33;;;;;;;1.80;1.50;;;16.50;42.60;;;;;;6098249;23;20148;-78
2021/01/08 08:39:01;;;;;;;1.75;1.60;;;16.50;42.60;;;;;;6098420;23;20137;-79
2021/01/08 08:41:30;;;;;;;2.03;1.70;;;16.40;42.60;;;;;;6098567;23;20140;-79
2021/01/08 08:44:03;;;;;;;1.60;1.45;;;16.40;42.70;;;;;;6098927;23;20134;-79
2021/01/08 08:46:39;;;;;;;1.80;1.60;;;16.40;42.80;;;;;;6074289;23;20145;-79
2021/01/08 08:49:06;;;;;;;1.50;1.20;;;16.40;42.70;;;;;;6100286;23;20207;-79
2021/01/08 08:51:32;;;;;;;1.50;1.40;;;16.50;42.50;;;;;;6100726;23;20184;-78
2021/01/08 08:53:58;;;;;;;2.10;1.67;;;16.50;42.70;;;;;;6075973;23;20145;-79
2021/01/08 08:56:26;;;;;;;1.40;1.30;;;16.50;42.50;;;;;;6100530;23;20593;-79
2021/01/08 08:59:01;;;;;;;1.90;1.60;;;16.50;42.50;;;;;;6100202;23;20133;-79
2021/01/08 09:01:42;;;;;;;1.63;1.48;;;16.60;42.40;;;;;;6100236;23;20527;-79
2021/01/08 09:04:08;;;;;;;1.70;1.48;;;16.60;42.30;;;;;;6100429;23;20136;-79
2021/01/08 09:06:39;;;;;;;2.22;1.70;;;16.60;42.40;;;;;;6100093;23;20199;-78
2021/01/08 09:09:11;;;;;;;1.73;1.58;;;16.60;42.30;;;;;;6075452;23;20148;-79
2021/01/08 09:11:44;;;;;;;2.17;1.55;;;16.70;42.30;;;;;;6075314;23;20224;-78
2021/01/08 09:14:13;;;;;;;1.50;1.40;;;16.70;42.10;;;;;;6075077;23;20147;-79
2021/01/08 09:16:52;;;;;;;2.05;1.60;;;16.60;42.20;;;;;;6100239;23;20137;-80
2021/01/08 09:19:46;;;;;;;2.67;1.50;;;16.60;42.30;;;;;;6074163;23;20147;-78
2021/01/08 09:22:11;;;;;;;1.80;1.70;;;16.60;42.30;;;;;;5987130;23;20171;-78
2021/01/08 09:24:37;;;;;;;2.10;1.67;;;16.60;42.50;;;;;;5964622;23;20498;-78
2021/01/08 09:27:04;;;;;;;1.48;1.38;;;16.50;42.50;;;;;;5987803;23;20165;-79
2021/01/08 09:29:31;;;;;;;1.95;1.65;;;16.60;42.50;;;;;;6015787;23;20556;-82
2021/01/08 09:32:01;;;;;;;1.40;1.27;;;16.50;42.50;;;;;;5977344;23;20167;-83
2021/01/08 09:34:29;;;;;;;3.30;1.50;;;16.50;42.50;;;;;;5977000;23;20198;-82
2021/01/08 09:37:16;;;;;;;1.67;1.40;;;16.50;42.60;;;;;;5976501;23;20238;-83
2021/01/08 09:39:43;;;;;;;9.65;1.98;;;16.60;42.50;;;;;;5999763;23;20161;-82
2021/01/08 09:42:10;;;;;;;17.58;2.35;;;16.60;42.30;;;;;;5952669;23;20214;-80
2021/01/08 09:44:42;;;;;;;27.00;3.33;;;16.60;42.50;;;;;;5953867;23;20159;-81
2021/01/08 09:47:13;;;;;;;20.52;2.25;;;16.60;42.60;;;;;;5977082;23;20186;-80
2021/01/08 09:49:42;;;;;;;15.70;2.03;;;16.60;42.60;;;;;;5977552;23;20202;-81
2021/01/08 09:52:09;;;;;;;5.28;2.15;;;16.60;43.40;;;;;;5999113;23;20151;-81
2021/01/08 09:54:57;;;;;;;8.50;1.70;;;16.60;42.60;;;;;;5978359;23;20192;-80
2021/01/08 09:57:27;;;;;;;9.38;1.75;;;16.60;42.60;;;;;;5995185;23;20158;-81
2021/01/08 09:59:58;;;;;;;9.82;1.90;;;16.60;42.70;;;;;;6053992;23;20164;-81
2021/01/08 10:02:43;;;;;;;7.05;1.88;;;16.60;42.90;;;;;;6061503;23;20153;-81
2021/01/08 10:05:24;;;;;;;7.78;1.83;;;16.50;42.90;;;;;;6059869;23;20160;-80
2021/01/08 10:07:55;;;;;;;5.53;1.80;;;16.60;42.90;;;;;;6086016;23;20137;-81
2021/01/08 10:10:28;;;;;;;3.65;1.50;;;16.60;42.80;;;;;;6086247;23;20168;-81
2021/01/08 10:12:55;;;;;;;5.25;1.70;;;16.70;42.80;;;;;;6081492;23;20160;-79
2021/01/08 10:15:43;;;;;;;2.95;1.60;;;16.60;42.80;;;;;;6057040;23;20160;-80
2021/01/08 10:18:32;;;;;;;5.43;1.52;;;16.70;42.70;;;;;;6055328;23;20168;-79
2021/01/08 10:21:07;;;;;;;3.03;1.38;;;16.70;42.80;;;;;;6079280;23;20140;-79
2021/01/08 10:23:43;;;;;;;4.88;1.83;;;16.60;42.90;;;;;;6057919;23;20152;-81
2021/01/08 10:26:19;;;;;;;5.60;1.98;;;16.70;42.90;;;;;;6057207;23;20158;-80
2021/01/08 10:28:53;;;;;;;5.13;1.48;;;16.60;43.00;;;;;;6059272;23;20156;-80
2021/01/08 10:31:19;;;;;;;5.50;1.90;;;16.70;43.70;;;;;;6108703;23;20164;-80
2021/01/08 10:33:46;;;;;;;4.43;1.40;;;16.70;43.00;;;;;;6083889;23;20140;-80
2021/01/08 10:36:12;;;;;;;2.85;1.63;;;16.70;43.00;;;;;;6106216;23;20199;-79
2021/01/08 10:38:47;;;;;;;4.43;1.85;;;16.70;43.00;;;;;;6139402;23;20137;-79
2021/01/08 10:41:17;;;;;;;4.57;1.40;;;16.70;43.10;;;;;;6136968;23;20190;-78
2021/01/08 10:43:45;;;;;;;3.47;1.63;;;16.70;43.00;;;;;;6109045;23;20152;-79
2021/01/08 10:46:12;;;;;;;4.88;1.63;;;16.80;42.90;;;;;;6138597;23;20220;-81
2021/01/08 10:48:39;;;;;;;3.08;1.52;;;16.70;43.00;;;;;;6136833;23;20144;-80
2021/01/08 10:51:05;;;;;;;3.17;1.90;;;16.70;43.00;;;;;;6137087;23;20199;-79
2021/01/08 10:53:31;;;;;;;4.05;1.50;;;16.70;43.00;;;;;;6114221;23;20598;-80
2021/01/08 10:55:57;;;;;;;3.42;1.70;;;16.70;43.10;;;;;;6138455;23;20132;-80
2021/01/08 10:58:22;;;;;;;2.28;1.60;;;16.70;43.20;;;;;;6138928;23;20136;-81
2021/01/08 11:00:49;;;;;;;2.75;1.55;;;16.80;43.10;;;;;;6114179;23;20191;-80
2021/01/08 11:03:14;;;;;;;2.30;1.40;;;16.80;43.00;;;;;;6139822;23;20227;-79
2021/01/08 11:05:41;;;;;;;3.63;1.73;;;16.80;43.10;;;;;;6113396;23;20147;-81
2021/01/08 11:08:16;;;;;;;3.92;1.65;;;16.80;43.10;;;;;;6091051;23;20203;-81
2021/01/08 11:10:45;;;;;;;6.60;1.85;;;16.70;43.20;;;;;;6140188;23;20179;-81
2021/01/08 11:13:10;;;;;;;2.58;1.65;;;16.70;43.30;;;;;;6140862;23;20132;-80
2021/01/08 11:15:36;;;;;;;3.88;1.70;;;16.80;43.20;;;;;;6140093;23;20196;-81
2021/01/08 11:18:04;;;;;;;3.75;1.42;;;16.70;43.20;;;;;;6114179;23;20583;-81
2021/01/08 11:20:30;;;;;;;2.88;1.70;;;16.70;43.30;;;;;;6140176;23;20190;-82
2021/01/08 11:23:04;;;;;;;2.58;1.42;;;16.70;43.30;;;;;;6140768;23;20575;-82
2021/01/08 11:25:31;;;;;;;3.30;1.70;;;16.80;43.30;;;;;;6115127;23;20212;-80
2021/01/08 11:27:59;;;;;;;3.65;1.50;;;16.70;43.30;;;;;;6139852;23;20553;-81
2021/01/08 11:30:26;;;;;;;2.22;1.58;;;16.80;43.20;;;;;;6113290;23;20183;-83
2021/01/08 11:32:54;;;;;;;3.33;1.83;;;16.80;43.30;;;;;;6089784;23;20148;-81
2021/01/08 11:35:20;;;;;;;2.47;1.60;;;16.80;43.10;;;;;;6113937;23;20192;-81
2021/01/08 11:37:46;;;;;;;4.32;1.52;;;16.80;43.10;;;;;;6114620;23;20144;-81
2021/01/08 11:40:12;;;;;;;2.20;1.80;;;16.80;43.30;;;;;;6140410;23;20145;-81
2021/01/08 11:42:37;;;;;;;1.65;1.40;;;16.90;43.10;;;;;;6140181;23;20227;-80
2021/01/08 11:45:05;;;;;;;3.17;1.85;;;16.90;43.00;;;;;;6134399;23;20595;-78
2021/01/08 11:47:35;;;;;;;3.53;1.80;;;16.90;43.10;;;;;;6126761;23;20147;-78
2021/01/08 11:50:02;;;;;;;3.90;1.80;;;16.90;43.00;;;;;;6127086;23;20179;-77
2021/01/08 11:52:31;;;;;;;4.00;1.88;;;16.90;43.00;;;;;;6127198;23;20533;-78
2021/01/08 11:54:57;;;;;;;2.95;1.60;;;16.90;43.20;;;;;;6126313;23;20133;-79
2021/01/08 11:57:22;;;;;;;3.67;1.60;;;16.80;43.30;;;;;;6101399;23;20461;-78
2021/01/08 11:59:50;;;;;;;6.57;1.88;;;16.80;43.30;;;;;;6100885;23;20148;-78
2021/01/08 12:02:16;;;;;;;4.47;1.88;;;16.80;43.40;;;;;;6102041;23;20160;-80
2021/01/08 12:04:42;;;;;;;3.05;1.85;;;16.70;43.40;;;;;;6127200;23;20137;-78
2021/01/08 12:07:07;;;;;;;3.33;1.63;;;16.70;43.50;;;;;;6077290;23;20148;-78
2021/01/08 12:09:33;;;;;;;2.05;1.67;;;16.70;43.60;;;;;;6127332;23;20499;-78
2021/01/08 12:12:05;;;;;;;2.67;1.50;;;16.80;43.40;;;;;;6100955;23;20565;-78
2021/01/08 12:14:31;;;;;;;4.22;1.60;;;16.80;43.50;;;;;;6076904;23;20144;-79
2021/01/08 12:17:09;;;;;;;3.95;1.77;;;16.70;43.50;;;;;;6100640;23;20218;-78
2021/01/08 12:19:35;;;;;;;5.75;1.65;;;16.70;43.60;;;;;;6103265;23;20576;-78
2021/01/08 12:22:01;;;;;;;1.52;1.42;;;16.70;43.70;;;;;;6110420;23;20143;-79
2021/01/08 12:24:34;;;;;;;2.60;1.88;;;16.70;43.70;;;;;;6115630;23;20137;-80
2021/01/08 12:27:02;;;;;;;1.48;1.38;;;16.70;43.60;;;;;;6141946;23;20232;-79
2021/01/08 12:29:30;;;;;;;3.30;1.67;;;16.80;43.60;;;;;;6141338;23;20243;-79
2021/01/08 12:32:00;;;;;;;2.50;1.55;;;16.80;43.60;;;;;;6141602;23;20132;-79
2021/01/08 12:34:26;;;;;;;2.55;1.73;;;16.80;43.40;;;;;;6116011;23;20132;-80
2021/01/08 12:37:03;;;;;;;2.10;1.60;;;16.80;43.30;;;;;;6141119;23;20163;-81
2021/01/08 12:39:29;;;;;;;2.25;1.60;;;16.80;43.40;;;;;;6116444;23;20166;-80
2021/01/08 12:41:57;;;;;;;2.33;1.58;;;16.80;43.50;;;;;;6142138;23;20180;-80
2021/01/08 12:44:29;;;;;;;2.90;1.52;;;16.80;43.40;;;;;;6142271;23;20156;-82
2021/01/08 12:46:59;;;;;;;2.08;1.60;;;16.80;43.40;;;;;;6115695;23;20285;-80
2021/01/08 12:49:34;;;;;;;2.13;1.70;;;16.80;43.50;;;;;;6116601;23;20172;-80
2021/01/08 12:52:02;;;;;;;1.60;1.40;;;16.80;43.60;;;;;;6142059;23;20136;-80
2021/01/08 12:54:28;;;;;;;2.63;1.83;;;16.80;43.60;;;;;;6116411;23;20152;-81